Terminal Aerodrome Forecast
Issued by NWS

Current Version | Previous Version | Graphics & Text | Print | Product List | Glossary On
Versions: 1 2 3 4 5 6 7 8 9 10 11 12 13 14 15 16 17 18 19 20 21 22 23 24
000
FTUS41 KRLX 161100 RRA
TAFCKB
TAF
KCKB 161153Z 1612/1712 17007KT 4SM -SHRA BR OVC040
     FM161400 19008KT P6SM OVC030
     FM161700 21012G23KT 6SM -SHRA OVC015
     FM162100 25012G21KT P6SM OVC015
     FM162300 24011G19KT P6SM OVC015
     FM170600 24009KT P6SM OVC008=

USA.gov is the U.S. government's official web portal to all federal, state and local government web resources and services.